Fayette, MO (65248)

5:38 AM CDT on October 02, 2014 (GMT -0500)
Viertel Memorial | Change Station
CLOSE
Current Station
Airport
Location: Boonville,
Elevation: 715 ft
Nearby Weather Stations
Active Advisory: Flood Warning, Flash Flood Watch Active Notice: Record Report

Elev 715 ft 38.95 °N, 92.68 °W | Updated 23 minutes ago

Partly Cloudy
Partly Cloudy
64 °F
Feels Like 64 °F
N
9
Wind Variable Wind from ESE

Today
High -- | Low -- °F
--% Chance of Precip.
Yesterday
High -- | Low -- °F
Precip. -- in
7:07 AM 6:51 PM
First Quarter, 57% visible
Pressure 29.80 in
Visibility 10.0 miles
Clouds Clear
Dew Point 64 °F
Humidity 99%
Rainfall 3.12 in
Snow Depth Not available.
UV 0 out of 12
Pollen 4.70 out of 12
Air Quality Not available.
Flu Activity Not available.
METAR KVER 021015Z AUTO 11008KT 10SM VCTS CLR 18/18 A2980 RMK AO2 LTG DSNT ALQS T01770176

More Conditions Fewer Conditions

Pressure 29.80 in
Visibility 10.0 miles
Clouds Clear
Dew Point 64 °F
Humidity 99%
Rainfall 3.12 in
Snow Depth Not available.
UV 0 out of 12
Pollen 4.70 out of 12
Air Quality Not available.
Flu Activity Not available.
METAR KVER 021015Z AUTO 11008KT 10SM VCTS CLR 18/18 A2980 RMK AO2 LTG DSNT ALQS T01770176

More Conditions Fewer Conditions

10-Day Weather Forecast

Almanac

Astronomy

Oct. 02, 2014 Rise Set
Actual Time 7:07 AM CDT 6:51 PM CDT
Civil Twilight 6:41 AM CDT 7:18 PM CDT
Nautical Twilight 6:10 AM CDT 7:49 PM CDT
Astronomical Twilight 5:38 AM CDT 8:20 PM CDT
Moon 2:56 PM CDT 12:27 AM CDT
Length of Visible Light 12h 37m
Length of Day
11h 44m
Tomorrow will be 2m 32s shorter.
First Quarter, 57% of the Moon is Illuminated
Today
First Quarter
Oct 8
Full
Oct 15
Last Quarter
Oct 23
New
Oct 30
First Quarter

Today's Extremes

State Highs State Lows

Community

WunderPhotos

Upload Photos

1,758,210 photos uploaded!

WunderBlogs® & News

Nearby

Snow Depth

Station Depth Elevation
No new snow has been reported.

Earthquake Activity

City Distance Mag. Time & Date
No recent earthquake activity has been reported nearby.
Minimum magnitude displayed is 2.5.

Coastal Water Temperatures

Place Temperature
No Stations Reporting

Nearby Weather Stations